Time;durP1;ratioP1;P1;durP2;ratioP2;P2;SDS_P1;SDS_P2;PMS_P1;PMS_P2;Temp;Humidity;BMP_temperature;BMP_pressure;BME280_temperature;BME280_humidity;BME280_pressure;Samples;Min_cycle;Max_cycle;Signal;HPM_P1;HPM_P2
2022/04/13 00:02:20;;;;;;;9.18;3.20;;;;;;;-148.33;100.00;56587.81;5028384;28;20025;-56
2022/04/13 00:04:45;;;;;;;11.50;3.95;;;;;;;-148.33;100.00;56587.81;5027208;28;20201;-56
2022/04/13 00:07:11;;;;;;;8.60;3.30;;;;;;;-148.33;100.00;56587.81;5027756;28;20075;-57
2022/04/13 00:09:36;;;;;;;5.22;2.95;;;;;;;-148.33;100.00;56587.81;5027839;28;20384;-57
2022/04/13 00:12:03;;;;;;;6.72;2.88;;;;;;;-148.33;100.00;56587.81;5028185;28;20060;-57
2022/04/13 00:14:29;;;;;;;6.82;3.55;;;;;;;-148.33;100.00;56587.81;5028454;28;20029;-58
2022/04/13 00:16:54;;;;;;;9.13;3.47;;;;;;;-148.33;100.00;56587.81;5027904;28;20027;-57
2022/04/13 00:19:21;;;;;;;8.18;3.13;;;;;;;-148.33;100.00;56587.81;5027598;28;20075;-57
2022/04/13 00:21:47;;;;;;;7.60;3.10;;;;;;;-148.33;100.00;56587.81;5027732;28;20240;-57
2022/04/13 00:24:13;;;;;;;10.52;3.60;;;;;;;-148.33;100.00;56587.81;5027872;28;20108;-57
2022/04/13 00:26:38;;;;;;;6.55;3.35;;;;;;;-148.33;100.00;56587.81;5037854;28;20021;-56
2022/04/13 00:29:04;;;;;;;9.02;3.45;;;;;;;-148.33;100.00;56587.81;5047495;28;20028;-56
2022/04/13 00:31:29;;;;;;;5.68;2.85;;;;;;;-148.33;100.00;56587.81;5047295;28;20021;-56
2022/04/13 00:33:54;;;;;;;8.23;3.10;;;;;;;-148.33;100.00;56587.81;5048125;28;20031;-57
2022/04/13 00:36:20;;;;;;;8.10;3.00;;;;;;;-148.33;100.00;56587.81;5047617;28;20083;-57
2022/04/13 00:38:45;;;;;;;7.82;3.35;;;;;;;-148.33;100.00;56587.81;5051283;28;20025;-56
2022/04/13 00:41:11;;;;;;;7.32;3.30;;;;;;;-148.33;100.00;56587.81;5051144;28;20025;-57
2022/04/13 00:43:37;;;;;;;7.07;3.50;;;;;;;-148.33;100.00;56587.81;5050919;28;20452;-56
2022/04/13 00:46:02;;;;;;;8.13;3.50;;;;;;;-148.33;100.00;56587.81;5051483;28;20059;-57
2022/04/13 00:48:34;;;;;;;7.95;3.35;;;;;;;-148.33;100.00;56587.81;5050909;28;20451;-58
2022/04/13 00:50:59;;;;;;;10.45;3.20;;;;;;;-148.33;100.00;56587.81;5051321;28;20025;-57
2022/04/13 00:53:25;;;;;;;6.95;3.53;;;;;;;-148.33;100.00;56587.81;5050435;28;20132;-57
2022/04/13 00:55:55;;;;;;;8.32;3.13;;;;;;;-148.33;100.00;56587.81;5051131;28;20036;-57
2022/04/13 00:58:24;;;;;;;9.52;3.28;;;;;;;-148.33;100.00;56587.81;5051584;28;20028;-56
2022/04/13 01:00:50;;;;;;;7.70;3.45;;;;;;;-148.33;100.00;56587.81;5051139;28;20033;-57
2022/04/13 01:03:18;;;;;;;8.60;3.50;;;;;;;-148.33;100.00;56587.81;5050518;28;20029;-57
2022/04/13 01:05:48;;;;;;;5.82;3.13;;;;;;;-148.33;100.00;56587.81;5051121;28;20480;-57
2022/04/13 01:08:15;;;;;;;7.93;3.30;;;;;;;-148.33;100.00;56587.81;5050661;28;20036;-56
2022/04/13 01:10:42;;;;;;;6.70;3.45;;;;;;;-148.33;100.00;56587.81;5050942;28;20020;-57
2022/04/13 01:13:08;;;;;;;9.43;3.20;;;;;;;-148.33;100.00;56587.81;5050677;28;20465;-56
2022/04/13 01:15:34;;;;;;;7.38;3.25;;;;;;;-148.33;100.00;56587.81;5050604;28;20039;-57
2022/04/13 01:17:59;;;;;;;8.95;3.67;;;;;;;-148.33;100.00;56587.81;5038254;28;20608;-58
2022/04/13 01:20:25;;;;;;;6.97;3.65;;;;;;;-148.33;100.00;56587.81;5030266;28;20111;-57
2022/04/13 01:22:50;;;;;;;9.30;4.20;;;;;;;-148.33;100.00;56587.81;5030627;28;20370;-57
2022/04/13 01:25:16;;;;;;;4.97;3.35;;;;;;;-148.33;100.00;56587.81;5030811;28;20047;-57
2022/04/13 01:27:41;;;;;;;11.68;4.03;;;;;;;-148.33;100.00;56587.81;5030722;28;20029;-57
2022/04/13 01:30:08;;;;;;;8.13;3.95;;;;;;;-148.33;100.00;56587.81;5030437;28;20033;-57
2022/04/13 01:32:33;;;;;;;8.60;3.90;;;;;;;-148.33;100.00;56587.81;5030017;28;20144;-58
2022/04/13 01:34:59;;;;;;;6.65;3.92;;;;;;;-148.33;100.00;56587.81;5030294;28;20091;-55
2022/04/13 01:37:24;;;;;;;11.45;4.35;;;;;;;-148.33;100.00;56587.81;5030213;28;20094;-58
2022/04/13 01:39:50;;;;;;;10.35;4.70;;;;;;;-148.33;100.00;56587.81;5030026;28;20393;-57
2022/04/13 01:42:15;;;;;;;9.45;4.70;;;;;;;-148.33;100.00;56587.81;5029857;28;20029;-58
2022/04/13 01:44:41;;;;;;;9.13;5.03;;;;;;;-148.33;100.00;56587.81;5030173;28;20416;-57
2022/04/13 01:47:07;;;;;;;9.85;4.60;;;;;;;-148.33;100.00;56587.81;5030708;28;20500;-57
2022/04/13 01:49:32;;;;;;;10.10;5.18;;;;;;;-148.33;100.00;56587.81;5049236;28;20024;-57
2022/04/13 01:51:57;;;;;;;8.45;4.80;;;;;;;-148.33;100.00;56587.81;5049574;28;20044;-57
2022/04/13 01:54:23;;;;;;;8.02;4.82;;;;;;;-148.33;100.00;56587.81;5049895;28;20206;-57
2022/04/13 01:56:48;;;;;;;9.32;4.63;;;;;;;-148.33;100.00;56587.81;5048255;28;20036;-56
2022/04/13 01:59:13;;;;;;;9.57;5.30;;;;;;;-148.33;100.00;56587.81;5049987;28;20067;-57
2022/04/13 02:01:43;;;;;;;13.95;5.43;;;;;;;-148.33;100.00;56587.81;5049512;28;20037;-56
2022/04/13 02:04:20;;;;;;;10.77;6.25;;;;;;;-148.33;100.00;56587.81;5050153;28;20512;-56
2022/04/13 02:06:46;;;;;;;14.10;5.55;;;;;;;-148.33;100.00;56587.81;5049589;28;20028;-57
2022/04/13 02:09:11;;;;;;;12.07;5.72;;;;;;;-148.33;100.00;56587.81;5049782;28;20036;-57
2022/04/13 02:11:37;;;;;;;10.57;5.95;;;;;;;-148.33;100.00;56587.81;5049641;28;20077;-55
2022/04/13 02:14:02;;;;;;;7.95;5.32;;;;;;;-148.33;100.00;56587.81;5049148;28;20508;-57
2022/04/13 02:16:27;;;;;;;8.25;6.00;;;;;;;-148.33;100.00;56587.81;5049439;28;20034;-56
2022/04/13 02:18:52;;;;;;;11.85;6.95;;;;;;;-148.33;100.00;56587.81;5049480;28;20108;-57
2022/04/13 02:21:18;;;;;;;9.93;6.03;;;;;;;-148.33;100.00;56587.81;5043312;28;20063;-58
2022/04/13 02:23:43;;;;;;;13.25;6.47;;;;;;;-148.33;100.00;56587.81;5028675;28;20025;-56
2022/04/13 02:26:08;;;;;;;10.63;5.75;;;;;;;-148.33;100.00;56587.81;5033582;28;20569;-57
2022/04/13 02:28:34;;;;;;;11.90;6.85;;;;;;;-148.33;100.00;56587.81;5029237;28;20474;-57
2022/04/13 02:30:59;;;;;;;10.80;6.65;;;;;;;-148.33;100.00;56587.81;5028288;28;20025;-57
2022/04/13 02:33:25;;;;;;;12.98;6.70;;;;;;;-148.33;100.00;56587.81;5028214;28;20133;-55
2022/04/13 02:35:50;;;;;;;11.18;6.53;;;;;;;-148.33;100.00;56587.81;5029309;28;20025;-57
2022/04/13 02:38:16;;;;;;;14.63;6.88;;;;;;;-148.33;100.00;56587.81;5029298;28;20036;-56
2022/04/13 02:40:42;;;;;;;10.52;6.00;;;;;;;-148.33;100.00;56587.81;5029183;28;20512;-57
2022/04/13 02:43:08;;;;;;;14.13;6.88;;;;;;;-148.33;100.00;56587.81;5029306;28;20021;-56
2022/04/13 02:45:34;;;;;;;10.77;6.43;;;;;;;-148.33;100.00;56587.81;5028622;28;20021;-56
2022/04/13 02:47:59;;;;;;;8.70;6.53;;;;;;;-148.33;100.00;56587.81;5028477;28;20464;-55
2022/04/13 02:50:24;;;;;;;13.43;6.20;;;;;;;-148.33;100.00;56587.81;5028708;28;20071;-57
2022/04/13 02:52:49;;;;;;;10.98;6.40;;;;;;;-148.33;100.00;56587.81;5028750;28;20030;-57
2022/04/13 02:55:15;;;;;;;9.43;6.22;;;;;;;-148.33;100.00;56587.81;5028622;28;20025;-57
2022/04/13 02:57:40;;;;;;;11.15;6.57;;;;;;;-148.33;100.00;56587.81;5027618;28;20037;-54
2022/04/13 03:00:08;;;;;;;10.65;6.32;;;;;;;-148.33;100.00;56587.81;5028182;28;20021;-56
2022/04/13 03:02:33;;;;;;;13.98;6.55;;;;;;;-148.33;100.00;56587.81;5028009;28;20112;-58
2022/04/13 03:04:58;;;;;;;10.32;6.68;;;;;;;-148.33;100.00;56587.81;5027860;28;20163;-56
2022/04/13 03:07:26;;;;;;;10.70;6.28;;;;;;;-148.33;100.00;56587.81;5028515;28;20033;-57
2022/04/13 03:09:51;;;;;;;11.30;6.35;;;;;;;-148.33;100.00;56587.81;5028546;28;20029;-56
2022/04/13 03:12:16;;;;;;;13.80;6.70;;;;;;;-148.33;100.00;56587.81;5027947;28;20378;-57
2022/04/13 03:14:41;;;;;;;10.13;6.65;;;;;;;-148.33;100.00;56587.81;5031475;28;20093;-57
2022/04/13 03:17:07;;;;;;;9.57;6.38;;;;;;;-148.33;100.00;56587.81;5033380;28;20033;-57
2022/04/13 03:19:32;;;;;;;12.68;6.53;;;;;;;-148.33;100.00;56587.81;5029042;28;20022;-56
2022/04/13 03:21:58;;;;;;;11.48;7.00;;;;;;;-148.33;100.00;56587.81;5028360;28;20048;-58
2022/04/13 03:24:24;;;;;;;11.18;6.93;;;;;;;-148.33;100.00;56587.81;5027786;28;20025;-56
2022/04/13 03:26:50;;;;;;;11.38;7.32;;;;;;;-148.33;100.00;56587.81;5028328;28;20407;-57
2022/04/13 03:29:16;;;;;;;9.55;6.35;;;;;;;-148.33;100.00;56587.81;5028377;28;20022;-57
2022/04/13 03:31:41;;;;;;;8.35;6.60;;;;;;;-148.33;100.00;56587.81;5027548;28;20069;-57
2022/04/13 03:34:07;;;;;;;9.57;7.05;;;;;;;-148.33;100.00;56587.81;5028212;28;20057;-56
2022/04/13 03:36:32;;;;;;;10.60;6.53;;;;;;;-148.33;100.00;56587.81;5026668;28;20029;-56
2022/04/13 03:38:57;;;;;;;9.73;6.10;;;;;;;-148.33;100.00;56587.81;5028157;28;20423;-57
2022/04/13 03:41:23;;;;;;;9.50;6.93;;;;;;;-148.33;100.00;56587.81;5027355;28;20025;-55
2022/04/13 03:43:48;;;;;;;11.25;7.13;;;;;;;-148.33;100.00;56587.81;5027146;28;20041;-55
2022/04/13 03:46:13;;;;;;;16.35;7.20;;;;;;;-148.33;100.00;56587.81;5028127;28;20032;-57
2022/04/13 03:48:38;;;;;;;10.25;7.00;;;;;;;-148.33;100.00;56587.81;5027557;28;20103;-57
2022/04/13 03:51:04;;;;;;;9.02;6.45;;;;;;;-148.33;100.00;56587.81;5028003;28;20104;-57
2022/04/13 03:53:29;;;;;;;9.52;6.80;;;;;;;-148.33;100.00;56587.81;5028066;28;20025;-55
2022/04/13 03:55:54;;;;;;;10.55;7.18;;;;;;;-148.33;100.00;56587.81;5027716;28;20033;-55
2022/04/13 03:58:21;;;;;;;11.18;6.82;;;;;;;-148.33;100.00;56587.81;5027822;28;20022;-57
2022/04/13 04:00:46;;;;;;;9.43;5.80;;;;;;;-148.33;100.00;56587.81;5027799;28;20421;-57
2022/04/13 04:03:12;;;;;;;10.65;6.60;;;;;;;-148.33;100.00;56587.81;5027449;28;20303;-56
2022/04/13 04:05:37;;;;;;;12.52;6.78;;;;;;;-148.33;100.00;56587.81;5027579;28;20029;-56
2022/04/13 04:08:03;;;;;;;15.88;7.20;;;;;;;-148.33;100.00;56587.81;5028032;28;20021;-57
2022/04/13 04:10:28;;;;;;;10.75;6.88;;;;;;;-148.33;100.00;56587.81;5027580;28;20153;-57
2022/04/13 04:12:55;;;;;;;9.20;6.43;;;;;;;-148.33;100.00;56587.81;5030158;28;20139;-56
2022/04/13 04:15:20;;;;;;;12.60;7.10;;;;;;;-148.33;100.00;56587.81;5031440;28;20029;-55
2022/04/13 04:17:46;;;;;;;11.65;7.10;;;;;;;-148.33;100.00;56587.81;5044293;28;20396;-57
2022/04/13 04:20:11;;;;;;;14.18;7.90;;;;;;;-148.33;100.00;56587.81;5051854;28;20025;-57
2022/04/13 04:22:37;;;;;;;8.48;6.35;;;;;;;-148.33;100.00;56587.81;5051618;28;20029;-57
2022/04/13 04:25:07;;;;;;;10.30;7.18;;;;;;;-148.33;100.00;56587.81;5051670;28;20021;-57
2022/04/13 04:27:33;;;;;;;10.45;6.75;;;;;;;-148.33;100.00;56587.81;5039666;28;20018;-55
2022/04/13 04:29:58;;;;;;;9.13;6.15;;;;;;;-148.33;100.00;56587.81;5031710;28;20030;-55
2022/04/13 04:32:24;;;;;;;11.65;6.95;;;;;;;-148.33;100.00;56587.81;5030889;28;20050;-57
2022/04/13 04:34:49;;;;;;;11.10;6.80;;;;;;;-148.33;100.00;56587.81;5031351;28;20021;-57
2022/04/13 04:37:15;;;;;;;9.82;6.80;;;;;;;-148.33;100.00;56587.81;5031608;28;20146;-57
2022/04/13 04:39:40;;;;;;;9.55;6.60;;;;;;;-148.33;100.00;56587.81;5030794;28;20033;-57
2022/04/13 04:42:06;;;;;;;10.00;7.13;;;;;;;-148.33;100.00;56587.81;5030496;28;20407;-57
2022/04/13 04:44:31;;;;;;;8.73;6.40;;;;;;;-148.33;100.00;56587.81;5029596;28;20056;-55
2022/04/13 04:46:57;;;;;;;9.43;6.85;;;;;;;-148.33;100.00;56587.81;5029778;28;20893;-56
2022/04/13 04:49:22;;;;;;;11.60;7.53;;;;;;;-148.33;100.00;56587.81;5028428;28;20495;-57
2022/04/13 04:51:47;;;;;;;12.88;7.05;;;;;;;-148.33;100.00;56587.81;5029271;28;20528;-56
2022/04/13 04:54:12;;;;;;;10.90;7.10;;;;;;;-148.33;100.00;56587.81;5029243;28;20022;-57
2022/04/13 04:56:38;;;;;;;11.52;6.80;;;;;;;-148.33;100.00;56587.81;5030496;28;20061;-57
2022/04/13 04:59:04;;;;;;;9.75;6.85;;;;;;;-148.33;100.00;56587.81;5031143;28;20014;-57
2022/04/13 05:01:29;;;;;;;10.43;7.28;;;;;;;-148.33;100.00;56587.81;5034019;28;20040;-57
2022/04/13 05:03:55;;;;;;;10.77;7.90;;;;;;;-148.33;100.00;56587.81;5031225;28;20076;-56
2022/04/13 05:06:23;;;;;;;12.00;8.45;;;;;;;-148.33;100.00;56587.81;5037490;28;20017;-55
2022/04/13 05:08:49;;;;;;;11.73;9.23;;;;;;;-148.33;100.00;56587.81;5032769;28;20049;-56
2022/04/13 05:11:15;;;;;;;13.90;8.65;;;;;;;-148.33;100.00;56587.81;5030588;28;20022;-56
2022/04/13 05:13:40;;;;;;;10.90;8.57;;;;;;;-148.33;100.00;56587.81;5030619;28;20250;-54
2022/04/13 05:16:06;;;;;;;13.45;9.30;;;;;;;-148.33;100.00;56587.81;5030652;28;20458;-56
2022/04/13 05:18:32;;;;;;;13.30;9.07;;;;;;;-148.33;100.00;56587.81;5030401;28;20653;-55
2022/04/13 05:20:57;;;;;;;17.15;10.93;;;;;;;-148.33;100.00;56587.81;5030435;28;20442;-56
2022/04/13 05:23:22;;;;;;;12.82;11.35;;;;;;;-148.33;100.00;56587.81;5028907;28;20044;-57
2022/04/13 05:25:48;;;;;;;16.73;11.63;;;;;;;-148.33;100.00;56587.81;5030631;28;20381;-55
2022/04/13 05:28:13;;;;;;;16.20;11.65;;;;;;;-148.33;100.00;56587.81;5030651;28;20389;-55
2022/04/13 05:30:39;;;;;;;16.88;12.35;;;;;;;-148.33;100.00;56587.81;5030700;28;20036;-54
2022/04/13 05:33:05;;;;;;;24.13;13.45;;;;;;;-148.33;100.00;56587.81;5029778;28;20045;-56
2022/04/13 05:35:31;;;;;;;16.88;12.88;;;;;;;-148.33;100.00;56587.81;5030264;28;20564;-54
2022/04/13 05:37:56;;;;;;;14.15;12.43;;;;;;;-148.33;100.00;56587.81;5030297;28;20116;-56
2022/04/13 05:40:23;;;;;;;19.50;13.43;;;;;;;-148.33;100.00;56587.81;5039736;28;20528;-57
2022/04/13 05:42:50;;;;;;;16.80;13.38;;;;;;;-148.33;100.00;56587.81;5030463;28;20037;-60
2022/04/13 05:45:17;;;;;;;17.08;13.48;;;;;;;-148.33;100.00;56587.81;5029887;28;20286;-56
2022/04/13 05:47:43;;;;;;;24.00;12.73;;;;;;;-148.33;100.00;56587.81;5030039;28;20021;-56
2022/04/13 05:50:10;;;;;;;15.77;13.57;;;;;;;-148.33;100.00;56587.81;5030299;28;20192;-56
2022/04/13 05:52:35;;;;;;;18.23;13.60;;;;;;;-148.33;100.00;56587.81;5029618;28;20025;-57
2022/04/13 05:55:01;;;;;;;19.92;14.40;;;;;;;-148.33;100.00;56587.81;5029655;28;20044;-58
2022/04/13 05:57:26;;;;;;;18.48;14.80;;;;;;;-148.33;100.00;56587.81;5029813;28;20526;-57
2022/04/13 05:59:52;;;;;;;19.20;14.48;;;;;;;-148.33;100.00;56587.81;5029549;28;20026;-57
2022/04/13 06:02:17;;;;;;;19.20;16.00;;;;;;;-148.33;100.00;56587.81;5029374;28;20496;-56
2022/04/13 06:04:42;;;;;;;23.85;17.35;;;;;;;-148.33;100.00;56587.81;5028606;28;20056;-57
2022/04/13 06:07:08;;;;;;;25.02;16.90;;;;;;;-148.33;100.00;56587.81;5029796;28;20033;-56
2022/04/13 06:09:33;;;;;;;26.55;16.58;;;;;;;-148.33;100.00;56587.81;5029312;28;20036;-56
2022/04/13 06:11:59;;;;;;;24.70;16.73;;;;;;;-148.33;100.00;56587.81;5028600;28;20033;-57
2022/04/13 06:14:24;;;;;;;24.13;16.92;;;;;;;-148.33;100.00;56587.81;5028345;28;20450;-55
2022/04/13 06:16:49;;;;;;;24.27;16.73;;;;;;;-148.33;100.00;56587.81;5028017;28;20033;-57
2022/04/13 06:19:15;;;;;;;17.95;14.05;;;;;;;-148.33;100.00;56587.81;5028819;28;20080;-56
2022/04/13 06:21:40;;;;;;;22.60;15.30;;;;;;;-148.33;100.00;56587.81;5029308;28;20027;-57
2022/04/13 06:24:05;;;;;;;16.67;14.85;;;;;;;-148.33;100.00;56587.81;5029259;28;20118;-57
2022/04/13 06:26:31;;;;;;;18.55;16.15;;;;;;;-148.33;100.00;56587.81;5035430;28;20034;-57
2022/04/13 06:28:56;;;;;;;19.77;17.00;;;;;;;-148.33;100.00;56587.81;5033737;28;20024;-56
2022/04/13 06:31:21;;;;;;;18.08;16.30;;;;;;;-148.33;100.00;56587.81;5047180;28;20074;-58
2022/04/13 06:33:48;;;;;;;19.23;17.17;;;;;;;-148.33;100.00;56587.81;5045267;28;20100;-57
2022/04/13 06:36:14;;;;;;;18.77;16.55;;;;;;;-148.33;100.00;56587.81;5040600;28;20028;-56
2022/04/13 06:38:40;;;;;;;19.58;17.45;;;;;;;-148.33;100.00;56587.81;5039363;28;20031;-57
2022/04/13 06:41:09;;;;;;;20.50;16.65;;;;;;;-148.33;100.00;56587.81;5037945;28;20537;-56
2022/04/13 06:43:35;;;;;;;20.13;16.85;;;;;;;-148.33;100.00;56587.81;5039963;28;20559;-57
2022/04/13 06:46:00;;;;;;;18.67;16.85;;;;;;;-148.33;100.00;56587.81;5046897;28;20060;-57
2022/04/13 06:48:25;;;;;;;21.60;18.65;;;;;;;-148.33;100.00;56587.81;5044762;28;20376;-57
2022/04/13 06:50:51;;;;;;;18.45;16.48;;;;;;;-148.33;100.00;56587.81;5046559;28;20025;-57
2022/04/13 06:53:17;;;;;;;20.05;18.15;;;;;;;-148.33;100.00;56587.81;5048239;28;20064;-58
2022/04/13 06:55:43;;;;;;;24.10;19.20;;;;;;;-148.33;100.00;56587.81;5048459;28;20096;-57
2022/04/13 06:58:09;;;;;;;22.83;18.92;;;;;;;-148.33;100.00;56587.81;5048024;28;20118;-57
2022/04/13 07:00:34;;;;;;;21.20;18.80;;;;;;;-148.33;100.00;56587.81;5048409;28;20024;-58
2022/04/13 07:02:59;;;;;;;21.35;18.52;;;;;;;-148.33;100.00;56587.81;5048538;28;20035;-58
2022/04/13 07:05:25;;;;;;;21.25;19.05;;;;;;;-148.33;100.00;56587.81;5048036;28;20032;-56
2022/04/13 07:07:50;;;;;;;22.60;18.25;;;;;;;-148.33;100.00;56587.81;5047862;28;20391;-56
2022/04/13 07:10:16;;;;;;;20.27;17.63;;;;;;;-148.33;100.00;56587.81;5047979;28;20597;-57
2022/04/13 07:12:41;;;;;;;19.05;17.02;;;;;;;-148.33;100.00;56587.81;5047491;28;20025;-58
2022/04/13 07:15:07;;;;;;;19.52;17.73;;;;;;;-148.33;100.00;56587.81;5045982;28;20145;-57
2022/04/13 07:17:32;;;;;;;22.92;17.80;;;;;;;-148.33;100.00;56587.81;5047987;28;20401;-56
2022/04/13 07:19:57;;;;;;;19.15;17.23;;;;;;;-148.33;100.00;56587.81;5047818;28;20020;-57
2022/04/13 07:22:24;;;;;;;21.73;18.85;;;;;;;-148.33;100.00;56587.81;5047253;28;20017;-58
2022/04/13 07:24:50;;;;;;;23.58;19.33;;;;;;;-148.33;100.00;56587.81;5047706;28;20029;-56
2022/04/13 07:27:15;;;;;;;26.63;18.50;;;;;;;-148.33;100.00;56587.81;5047755;28;20036;-56
2022/04/13 07:29:40;;;;;;;22.48;18.27;;;;;;;-148.33;100.00;56587.81;5046018;28;20021;-57
2022/04/13 07:32:06;;;;;;;22.40;17.77;;;;;;;-148.33;100.00;56587.81;5047298;28;20131;-56
2022/04/13 07:34:32;;;;;;;21.15;18.88;;;;;;;-148.33;100.00;56587.81;5047064;28;20088;-58
2022/04/13 07:36:58;;;;;;;20.90;18.70;;;;;;;-148.33;100.00;56587.81;5047410;28;20483;-57
2022/04/13 07:39:23;;;;;;;25.33;19.35;;;;;;;-148.33;100.00;56587.81;5047645;28;20465;-57
2022/04/13 07:41:48;;;;;;;21.95;18.52;;;;;;;-148.33;100.00;56587.81;5047240;28;20033;-57
2022/04/13 07:44:14;;;;;;;24.65;20.10;;;;;;;-148.33;100.00;56587.81;5047615;28;20017;-57
2022/04/13 07:46:39;;;;;;;24.58;19.63;;;;;;;-148.33;100.00;56587.81;5046421;28;20477;-57
2022/04/13 07:49:06;;;;;;;22.00;19.70;;;;;;;-148.33;100.00;56587.81;5047731;28;20062;-57
2022/04/13 07:51:33;;;;;;;23.15;19.48;;;;;;;-148.33;100.00;56587.81;5046705;28;20025;-57
2022/04/13 07:54:01;;;;;;;22.40;19.05;;;;;;;-148.33;100.00;56587.81;5046974;28;20036;-56
2022/04/13 07:56:26;;;;;;;20.88;18.60;;;;;;;-148.33;100.00;56587.81;5046567;28;20477;-57
2022/04/13 07:58:51;;;;;;;21.38;19.10;;;;;;;-148.33;100.00;56587.81;5046649;28;20032;-57
2022/04/13 08:01:17;;;;;;;23.30;18.42;;;;;;;-148.33;100.00;56587.81;5046297;28;20031;-57
2022/04/13 08:03:42;;;;;;;20.33;18.15;;;;;;;-148.33;100.00;56587.81;5047703;28;20027;-58
2022/04/13 08:06:07;;;;;;;19.02;17.05;;;;;;;-148.33;100.00;56587.81;5047748;28;20036;-57
2022/04/13 08:08:32;;;;;;;18.75;16.45;;;;;;;-148.33;100.00;56587.81;5047945;28;20148;-60
2022/04/13 08:10:58;;;;;;;18.48;16.48;;;;;;;-148.33;100.00;56587.81;5046911;28;20509;-56
2022/04/13 08:13:23;;;;;;;19.77;16.13;;;;;;;-148.33;100.00;56587.81;5046324;28;20068;-57
2022/04/13 08:15:48;;;;;;;17.05;15.25;;;;;;;-148.33;100.00;56587.81;5047488;28;20110;-57
2022/04/13 08:18:14;;;;;;;20.17;15.57;;;;;;;-148.33;100.00;56587.81;5047580;28;20024;-57
2022/04/13 08:20:39;;;;;;;18.55;15.70;;;;;;;-148.33;100.00;56587.81;5046549;28;20029;-58
2022/04/13 08:23:04;;;;;;;15.80;13.82;;;;;;;-148.33;100.00;56587.81;5047775;28;20482;-57
2022/04/13 08:25:30;;;;;;;15.57;13.10;;;;;;;-148.33;100.00;56587.81;5047379;28;20039;-57
2022/04/13 08:27:55;;;;;;;19.77;14.38;;;;;;;-148.33;100.00;56587.81;5047729;28;20024;-58
2022/04/13 08:30:21;;;;;;;15.27;13.60;;;;;;;-148.33;100.00;56587.81;5046674;28;20082;-56
2022/04/13 08:32:47;;;;;;;17.50;14.50;;;;;;;-148.33;100.00;56587.81;5047186;28;20057;-58
2022/04/13 08:35:12;;;;;;;17.17;15.18;;;;;;;-148.33;100.00;56587.81;5047575;28;20025;-56
2022/04/13 08:37:38;;;;;;;16.98;13.98;;;;;;;-148.33;100.00;56587.81;5047692;28;20583;-56
2022/04/13 08:40:04;;;;;;;12.98;11.68;;;;;;;-148.33;100.00;56587.81;5047205;28;20419;-57
2022/04/13 08:42:46;;;;;;;15.23;13.07;;;;;;;-148.33;100.00;56587.81;5046893;28;20033;-56
2022/04/13 08:45:23;;;;;;;17.25;13.30;;;;;;;-148.33;100.00;56587.81;5047693;28;20388;-58
2022/04/13 08:47:56;;;;;;;15.90;12.50;;;;;;;-148.33;100.00;56587.81;5047255;28;20033;-57
2022/04/13 08:50:27;;;;;;;16.17;12.90;;;;;;;-148.33;100.00;56587.81;5047159;28;20029;-58
2022/04/13 08:52:59;;;;;;;13.52;12.07;;;;;;;-148.33;100.00;56587.81;5046762;28;20468;-58
2022/04/13 08:55:26;;;;;;;15.27;13.00;;;;;;;-148.33;100.00;56587.81;5047227;28;20023;-58
2022/04/13 08:58:03;;;;;;;16.50;13.60;;;;;;;-148.33;100.00;56587.81;5040948;28;20108;-57
2022/04/13 09:00:31;;;;;;;14.98;13.25;;;;;;;-148.33;100.00;56587.81;5045644;28;20123;-57
2022/04/13 09:03:04;;;;;;;15.25;13.65;;;;;;;-148.33;100.00;56587.81;5044738;28;20033;-56
2022/04/13 09:05:32;;;;;;;15.05;13.55;;;;;;;-148.33;100.00;56587.81;5042712;28;20034;-58
2022/04/13 09:08:05;;;;;;;15.38;13.27;;;;;;;-148.33;100.00;56587.81;5046241;28;20027;-59
2022/04/13 09:10:31;;;;;;;15.38;13.45;;;;;;;-148.33;100.00;56587.81;5050635;28;20473;-59
2022/04/13 09:12:57;;;;;;;17.63;13.85;;;;;;;-148.33;100.00;56587.81;5048474;28;20083;-56
2022/04/13 09:15:23;;;;;;;15.70;13.52;;;;;;;-148.33;100.00;56587.81;5029593;28;20025;-56
2022/04/13 09:17:50;;;;;;;15.85;12.80;;;;;;;-148.33;100.00;56587.81;5028810;28;20115;-58
2022/04/13 09:20:15;;;;;;;16.52;12.77;;;;;;;-148.33;100.00;56587.81;5029330;28;20472;-58
2022/04/13 09:22:42;;;;;;;15.73;11.82;;;;;;;-148.33;100.00;56587.81;5049041;28;20028;-58
2022/04/13 09:25:08;;;;;;;13.13;11.50;;;;;;;-148.33;100.00;56587.81;5041961;28;20018;-57
2022/04/13 09:27:36;;;;;;;15.23;11.40;;;;;;;-148.33;100.00;56587.81;5030560;28;20075;-57
2022/04/13 09:30:01;;;;;;;14.48;11.23;;;;;;;-148.33;100.00;56587.81;5029614;28;20030;-57
2022/04/13 09:32:26;;;;;;;13.02;11.68;;;;;;;-148.33;100.00;56587.81;5037398;28;20048;-58
2022/04/13 09:34:53;;;;;;;12.85;11.40;;;;;;;-148.33;100.00;56587.81;5033820;28;20021;-58
2022/04/13 09:37:19;;;;;;;16.58;12.60;;;;;;;-148.33;100.00;56587.81;5043906;28;20168;-56
2022/04/13 09:39:45;;;;;;;13.88;12.43;;;;;;;-148.33;100.00;56587.81;5046682;28;20041;-58
2022/04/13 09:42:13;;;;;;;15.30;12.82;;;;;;;-148.33;100.00;56587.81;5035047;28;20056;-57
2022/04/13 09:44:41;;;;;;;13.32;11.93;;;;;;;-148.33;100.00;56587.81;5045405;28;20069;-56
2022/04/13 09:47:07;;;;;;;14.20;12.63;;;;;;;-148.33;100.00;56587.81;5045456;28;20117;-56
2022/04/13 09:49:32;;;;;;;13.50;12.23;;;;;;;-148.33;100.00;56587.81;5045815;28;20021;-57
2022/04/13 09:51:59;;;;;;;14.55;13.18;;;;;;;-148.33;100.00;56587.81;5049896;28;20037;-56
2022/04/13 09:54:25;;;;;;;15.82;13.27;;;;;;;-148.33;100.00;56587.81;5049453;28;20021;-58
2022/04/13 09:56:50;;;;;;;14.23;12.65;;;;;;;-148.33;100.00;56587.81;5049868;28;20162;-57
2022/04/13 09:59:27;;;;;;;16.00;13.63;;;;;;;-148.33;100.00;56587.81;5049809;28;20032;-56
2022/04/13 10:01:52;;;;;;;14.43;12.88;;;;;;;-148.33;100.00;56587.81;5049768;28;20055;-56
2022/04/13 10:04:24;;;;;;;15.68;12.75;;;;;;;-148.33;100.00;56587.81;5049815;28;20017;-57
2022/04/13 10:06:49;;;;;;;13.80;12.40;;;;;;;-148.33;100.00;56587.81;5048808;28;20564;-57
2022/04/13 10:09:14;;;;;;;18.85;13.63;;;;;;;-148.33;100.00;56587.81;5045114;28;20097;-57
2022/04/13 10:12:01;;;;;;;15.38;13.30;;;;;;;-148.33;100.00;56587.81;5029125;28;20029;-57
2022/04/13 10:14:27;;;;;;;15.13;12.55;;;;;;;-148.33;100.00;56587.81;5028362;28;20032;-57
2022/04/13 10:16:55;;;;;;;16.55;14.00;;;;;;;-148.33;100.00;56587.81;5029387;28;20047;-57
2022/04/13 10:19:21;;;;;;;18.63;14.50;;;;;;;-148.33;100.00;56587.81;5029650;28;20155;-58
2022/04/13 10:21:48;;;;;;;17.33;15.00;;;;;;;-148.33;100.00;56587.81;5029299;28;20499;-57
2022/04/13 10:24:30;;;;;;;16.05;14.15;;;;;;;-148.33;100.00;56587.81;5028722;28;20418;-58
2022/04/13 10:27:12;;;;;;;15.68;13.73;;;;;;;-148.33;100.00;56587.81;5029404;28;20392;-58
2022/04/13 10:29:42;;;;;;;15.20;13.63;;;;;;;-148.33;100.00;56587.81;5029484;28;20029;-56
2022/04/13 10:32:24;;;;;;;16.48;12.98;;;;;;;-148.33;100.00;56587.81;5028836;28;20041;-55
2022/04/13 10:34:55;;;;;;;16.17;13.73;;;;;;;-148.33;100.00;56587.81;5029701;28;20083;-57
2022/04/13 10:37:20;;;;;;;;;;;;;;;-148.33;100.00;56587.81;5029725;28;20472;-57
2022/04/13 10:39:47;;;;;;;15.57;13.02;;;;;;;-148.33;100.00;56587.81;5028870;28;19909;-57
2022/04/13 10:42:16;;;;;;;17.05;14.40;;;;;;;-148.33;100.00;56587.81;5029433;28;20033;-55
2022/04/13 10:45:02;;;;;;;15.57;13.90;;;;;;;-148.33;100.00;56587.81;5030546;28;20476;-56
2022/04/13 10:47:52;;;;;;;16.20;14.60;;;;;;;-148.33;100.00;56587.81;5042719;28;20040;-57
2022/04/13 10:50:24;;;;;;;16.70;14.95;;;;;;;-148.33;100.00;56587.81;5041612;28;20104;-55
2022/04/13 10:52:56;;;;;;;19.95;16.38;;;;;;;-148.33;100.00;56587.81;5031555;28;20403;-57
2022/04/13 10:55:22;;;;;;;19.02;17.15;;;;;;;-148.33;100.00;56587.81;5042608;28;20060;-57
2022/04/13 10:57:59;;;;;;;19.08;16.48;;;;;;;-148.33;100.00;56587.81;5045177;28;20158;-56